Time;durP1;ratioP1;P1;durP2;ratioP2;P2;SDS_P1;SDS_P2;PMS_P1;PMS_P2;Temp;Humidity;BMP_temperature;BMP_pressure;BME280_temperature;BME280_humidity;BME280_pressure;Samples;Min_cycle;Max_cycle;Signal;HPM_P1;HPM_P2
2021/01/05 00:00:15;;;;;;;69.62;27.22;;;;;;;-0.04;100.00;100432.20;1741794;79;21191;-54
2021/01/05 00:02:43;;;;;;;65.90;26.17;;;;;;;-0.10;100.00;100435.72;1739473;79;21002;-52
2021/01/05 00:09:10;;;;;;;108.85;34.88;;;;;;;-0.23;100.00;100443.16;1788406;77;23266;-52
2021/01/05 00:11:59;;;;;;;94.83;34.20;;;;;;;-0.28;100.00;100445.78;1766417;78;21010;-52
2021/01/05 00:14:29;;;;;;;86.47;30.50;;;;;;;-0.29;100.00;100431.20;1762941;78;23061;-53
2021/01/05 00:16:57;;;;;;;167.43;43.87;;;;;;;-0.29;100.00;100433.86;1766060;78;20998;-53
2021/01/05 00:19:26;;;;;;;125.27;38.13;;;;;;;-0.29;100.00;100429.89;1767324;78;21077;-53
2021/01/05 00:21:53;;;;;;;127.27;38.35;;;;;;;-0.28;100.00;100439.60;1768442;78;20999;-54
2021/01/05 00:24:21;;;;;;;130.57;39.42;;;;;;;-0.25;100.00;100434.77;1767638;78;21003;-53
2021/01/05 00:26:49;;;;;;;125.85;39.90;;;;;;;-0.25;100.00;100432.12;1770974;78;21574;-52
2021/01/05 00:29:18;;;;;;;137.88;44.20;;;;;;;-0.22;100.00;100435.65;1766289;78;21006;-54
2021/01/05 00:31:46;;;;;;;141.25;41.83;;;;;;;-0.22;100.00;100435.65;1768748;78;21615;-52
2021/01/05 00:34:13;;;;;;;110.80;36.45;;;;;;;-0.20;100.00;100431.27;1768031;78;20975;-53
2021/01/05 00:36:41;;;;;;;134.32;41.37;;;;;;;-0.20;100.00;100437.89;1767717;78;21165;-53
2021/01/05 00:39:09;;;;;;;120.57;38.17;;;;;;;-0.19;100.00;100442.75;1770327;78;21377;-53
2021/01/05 00:41:37;;;;;;;125.58;41.13;;;;;;;-0.14;100.00;100447.19;1772122;78;21255;-54
2021/01/05 00:44:05;;;;;;;123.35;41.40;;;;;;;-0.12;100.00;100446.73;1769503;78;21153;-52
2021/01/05 00:46:33;;;;;;;107.95;36.25;;;;;;;-0.12;100.00;100445.86;1765065;78;21476;-52
2021/01/05 00:49:01;;;;;;;83.10;32.17;;;;;;;-0.10;100.00;100448.98;1765680;78;21114;-53
2021/01/05 00:51:29;;;;;;;146.80;46.33;;;;;;;-0.14;100.00;100448.52;1736940;78;22361;-51
2021/01/05 00:53:57;;;;;;;120.62;39.88;;;;;;;-0.20;100.00;100451.14;1766235;78;21559;-52
2021/01/05 00:56:25;;;;;;;90.87;34.33;;;;;;;-0.21;100.00;100448.05;1765733;78;21531;-51
2021/01/05 00:58:53;;;;;;;86.37;33.92;;;;;;;-0.23;100.00;100451.11;1736066;78;21415;-52
2021/01/05 01:01:22;;;;;;;64.87;29.07;;;;;;;-0.21;100.00;100456.00;1764603;78;21117;-52
2021/01/05 01:03:51;;;;;;;75.45;31.60;;;;;;;-0.19;100.00;100454.23;1766680;77;21333;-54
2021/01/05 01:06:19;;;;;;;77.97;32.80;;;;;;;-0.17;100.00;100448.92;1765138;78;20994;-54
2021/01/05 01:08:48;;;;;;;72.40;31.82;;;;;;;-0.18;100.00;100442.74;1764804;78;20996;-53
2021/01/05 01:11:16;;;;;;;63.92;27.13;;;;;;;-0.18;100.00;100445.84;1765049;78;21097;-53
2021/01/05 01:13:46;;;;;;;67.37;27.85;;;;;;;-0.20;100.00;100439.21;1767290;78;21141;-54
2021/01/05 01:16:15;;;;;;;86.55;34.43;;;;;;;-0.19;100.00;100430.37;1774356;78;21366;-55
2021/01/05 01:18:43;;;;;;;110.75;36.30;;;;;;;-0.18;100.00;100423.30;1765972;78;21043;-55
2021/01/05 01:21:11;;;;;;;93.12;33.50;;;;;;;-0.20;100.00;100419.33;1767234;78;21026;-54
2021/01/05 01:23:39;;;;;;;70.70;32.17;;;;;;;-0.23;100.00;100420.63;1769107;78;21120;-53
2021/01/05 01:26:07;;;;;;;63.63;28.75;;;;;;;-0.28;100.00;100414.42;1764710;78;21641;-53
2021/01/05 01:28:37;;;;;;;69.92;28.87;;;;;;;-0.31;100.00;100415.76;1764045;78;21377;-54
2021/01/05 01:31:05;;;;;;;100.10;35.58;;;;;;;-0.34;100.00;100417.05;1763259;78;21007;-54
2021/01/05 01:33:34;;;;;;;111.85;36.58;;;;;;;-0.34;100.00;100414.41;1727764;80;21138;-54
2021/01/05 01:36:05;;;;;;;136.47;40.60;;;;;;;-0.36;100.00;100413.52;1717698;81;21079;-54
2021/01/05 01:38:33;;;;;;;134.07;42.33;;;;;;;-0.38;100.00;100411.28;1689281;81;21037;-54
2021/01/05 01:41:03;;;;;;;134.15;42.67;;;;;;;-0.36;100.00;100422.80;1717138;81;21350;-54
2021/01/05 01:43:33;;;;;;;159.52;45.15;;;;;;;-0.34;100.00;100405.12;1729677;80;21227;-55
2021/01/05 01:46:02;;;;;;;149.12;43.75;;;;;;;-0.30;100.00;100408.25;1729275;80;21013;-53
2021/01/05 01:48:32;;;;;;;122.60;39.20;;;;;;;-0.29;100.00;100410.01;1732650;80;21655;-54
2021/01/05 01:51:01;;;;;;;94.97;34.60;;;;;;;-0.28;100.00;100411.77;1726385;80;21104;-53
2021/01/05 01:53:53;;;;;;;;;;;;;;;-0.25;100.00;100421.52;1728020;80;21339;-54
2021/01/05 01:56:55;;;;;;;61.85;24.50;;;;;;;-0.24;100.00;100416.22;1724336;80;20621;-54
2021/01/05 01:59:39;;;;;;;59.85;28.12;;;;;;;-0.27;100.00;100427.70;1725224;80;21636;-53
2021/01/05 02:02:12;;;;;;;55.33;26.60;;;;;;;-0.30;100.00;100427.67;1696540;82;21024;-54
2021/01/05 02:04:51;;;;;;;54.63;24.27;;;;;;;-0.32;100.00;100416.61;1684017;81;21008;-53
2021/01/05 02:07:49;;;;;;;60.50;25.12;;;;;;;-0.34;100.00;100417.05;1696929;81;21414;-52
2021/01/05 02:10:35;;;;;;;54.53;26.15;;;;;;;-0.37;100.00;100414.41;1714447;81;21186;-54
2021/01/05 02:13:35;;;;;;;64.50;27.82;;;;;;;-0.37;100.00;100415.73;1811973;76;22764;-53
2021/01/05 02:16:52;;;;;;;59.83;26.95;;;;;;;-0.45;100.00;100420.09;1775525;79;21069;-55
2021/01/05 02:19:50;;;;;;;57.75;27.58;;;;;;;-0.48;100.00;100406.81;1773835;79;22214;-53
2021/01/05 02:22:40;;;;;;;55.25;26.80;;;;;;;-0.49;100.00;100399.75;1773365;79;20993;-52
2021/01/05 02:25:29;;;;;;;54.90;24.70;;;;;;;-0.46;100.00;100401.11;1773860;79;20970;-52
2021/01/05 02:28:02;;;;;;;46.15;22.65;;;;;;;-0.48;100.00;100393.57;1774167;79;20974;-52
2021/01/05 02:30:36;;;;;;;45.17;22.20;;;;;;;-0.43;100.00;100398.45;1773532;79;21518;-52
2021/01/05 02:33:25;;;;;;;46.95;23.10;;;;;;;-0.43;100.00;100399.78;1773915;79;21374;-51
2021/01/05 02:36:28;;;;;;;50.30;23.05;;;;;;;-0.41;100.00;100398.05;1774837;79;20989;-52
2021/01/05 02:39:44;;;;;;;43.52;21.60;;;;;;;-0.39;100.00;100393.63;1773896;79;21009;-51
2021/01/05 02:42:58;;;;;;;51.80;23.20;;;;;;;-0.37;100.00;100390.56;1773942;79;21057;-52
2021/01/05 02:46:11;;;;;;;65.17;25.08;;;;;;;-0.35;100.00;100380.84;1773717;79;20994;-52
2021/01/05 02:49:35;;;;;;;52.83;22.95;;;;;;;-0.25;100.00;100381.33;1818171;76;22829;-52
2021/01/05 02:52:42;;;;;;;50.55;23.52;;;;;;;-0.31;100.00;100379.54;1782232;79;20938;-52
2021/01/05 02:56:02;;;;;;;42.75;21.07;;;;;;;-0.28;100.00;100382.63;1782931;79;21846;-52
2021/01/05 02:59:38;;;;;;;45.12;20.27;;;;;;;-0.27;100.00;100376.44;1782283;79;21521;-52
2021/01/05 03:02:41;;;;;;;37.98;18.80;;;;;;;-0.32;100.00;100359.63;1782643;79;21387;-53
2021/01/05 03:05:27;;;;;;;37.90;17.60;;;;;;;-0.35;100.00;100356.98;1782325;79;21088;-52
2021/01/05 03:08:14;;;;;;;34.92;17.67;;;;;;;-0.35;100.00;100351.69;1783668;79;20961;-52
2021/01/05 03:11:03;;;;;;;46.90;19.70;;;;;;;-0.33;100.00;100352.56;1757582;79;22066;-52
2021/01/05 03:13:56;;;;;;;40.52;19.60;;;;;;;-0.32;100.00;100351.68;1779529;79;20998;-52
2021/01/05 03:16:47;;;;;;;36.40;18.35;;;;;;;-0.31;100.00;100352.16;1782737;79;20993;-52
2021/01/05 03:19:40;;;;;;;38.15;18.60;;;;;;;-0.31;100.00;100340.23;1782864;79;20981;-53
2021/01/05 03:22:28;;;;;;;51.35;21.35;;;;;;;-0.31;100.00;100338.91;1783109;79;21009;-52
2021/01/05 03:25:14;;;;;;;40.38;18.00;;;;;;;-0.30;100.00;100334.05;1782115;79;21395;-51
2021/01/05 03:28:02;;;;;;;34.78;16.87;;;;;;;-0.28;100.00;100341.10;1783378;79;21671;-52
2021/01/05 03:31:05;;;;;;;38.42;18.42;;;;;;;-0.27;100.00;100336.69;1763208;78;21614;-52
2021/01/05 03:33:48;;;;;;;28.02;17.40;;;;;;;-0.19;100.00;100317.72;1765471;78;38759;-51
2021/01/05 03:36:34;;;;;;;30.20;16.30;;;;;;;-0.22;100.00;100328.30;1724938;80;21025;-53
2021/01/05 03:39:20;;;;;;;56.25;21.10;;;;;;;-0.25;100.00;100325.66;1731786;80;22274;-52
2021/01/05 03:42:07;;;;;;;62.85;24.00;;;;;;;-0.25;100.00;100337.59;1726096;80;20975;-52
2021/01/05 03:44:52;;;;;;;48.85;20.52;;;;;;;-0.21;100.00;100336.73;1724890;80;21697;-53
2021/01/05 03:47:38;;;;;;;31.45;17.05;;;;;;;-0.20;100.00;100333.19;1723972;80;21109;-52
2021/01/05 03:50:25;;;;;;;33.38;17.10;;;;;;;-0.19;100.00;100339.38;1721260;80;20982;-53
2021/01/05 03:53:10;;;;;;;32.58;17.87;;;;;;;-0.18;100.00;100341.14;1724131;80;22027;-52
2021/01/05 03:55:57;;;;;;;30.08;16.35;;;;;;;-0.17;100.00;100346.43;1723562;80;21002;-53
2021/01/05 03:58:43;;;;;;;28.42;16.02;;;;;;;-0.13;100.00;100342.92;1722124;80;21637;-53
2021/01/05 04:01:28;;;;;;;30.00;15.23;;;;;;;-0.12;100.00;100342.03;1719378;80;21378;-52
2021/01/05 04:03:57;;;;;;;32.20;15.55;;;;;;;-0.13;100.00;100342.92;1722719;80;21404;-52
2021/01/05 04:06:28;;;;;;;33.40;16.65;;;;;;;-0.15;100.00;100341.16;1722983;80;21586;-52
2021/01/05 04:08:57;;;;;;;31.23;15.80;;;;;;;-0.19;100.00;100337.60;1724188;80;21013;-51
2021/01/05 04:11:25;;;;;;;30.25;15.88;;;;;;;-0.21;100.00;100340.70;1722586;80;21544;-52
2021/01/05 04:13:53;;;;;;;30.77;15.15;;;;;;;-0.21;100.00;100336.73;1725259;80;21113;-53
2021/01/05 04:16:21;;;;;;;33.10;16.60;;;;;;;-0.20;100.00;100338.48;1724262;80;20966;-52
2021/01/05 04:18:49;;;;;;;32.35;16.60;;;;;;;-0.18;100.00;100327.44;1725181;80;21394;-51
2021/01/05 04:21:17;;;;;;;35.08;15.83;;;;;;;-0.19;100.00;100333.62;1722814;80;21941;-52
2021/01/05 04:23:45;;;;;;;35.43;16.35;;;;;;;-0.22;100.00;100323.45;1723604;80;21640;-51
2021/01/05 04:26:13;;;;;;;35.83;17.52;;;;;;;-0.23;100.00;100323.89;1722841;80;21155;-51
2021/01/05 04:28:41;;;;;;;33.98;17.30;;;;;;;-0.25;100.00;100328.31;1723042;80;21508;-52
2021/01/05 04:31:09;;;;;;;33.98;16.52;;;;;;;-0.25;100.00;100326.99;1723141;80;21378;-53
2021/01/05 04:33:37;;;;;;;39.27;19.57;;;;;;;-0.24;100.00;100330.08;1713393;81;21050;-52
2021/01/05 04:36:06;;;;;;;36.10;19.23;;;;;;;-0.23;100.00;100338.47;1712682;81;21132;-53
2021/01/05 04:38:34;;;;;;;37.58;17.20;;;;;;;-0.20;100.00;100319.94;1715840;81;21051;-52
2021/01/05 04:41:02;;;;;;;29.12;16.93;;;;;;;-0.23;100.00;100325.22;1713118;81;21034;-52
2021/01/05 04:43:39;;;;;;;38.90;17.95;;;;;;;-0.24;100.00;100327.88;1711154;81;22058;-52
2021/01/05 04:46:21;;;;;;;32.42;17.87;;;;;;;-0.25;100.00;100315.06;1713139;81;21576;-52
2021/01/05 04:49:19;;;;;;;31.75;16.17;;;;;;;-0.24;100.00;100315.50;1711328;80;21668;-52
2021/01/05 04:52:05;;;;;;;33.92;17.90;;;;;;;-0.24;100.00;100320.80;1711880;81;21584;-52
2021/01/05 04:54:50;;;;;;;33.67;16.82;;;;;;;-0.23;100.00;100309.31;1710767;81;21140;-52
2021/01/05 04:57:23;;;;;;;33.85;16.40;;;;;;;-0.22;100.00;100308.42;1710621;81;21382;-53
2021/01/05 05:00:12;;;;;;;35.98;17.87;;;;;;;-0.23;100.00;100311.97;1713173;81;21681;-54
2021/01/05 05:02:46;;;;;;;35.08;17.62;;;;;;;-0.25;100.00;100311.09;1717283;81;21112;-52
2021/01/05 05:05:42;;;;;;;38.83;21.23;;;;;;;-0.17;100.00;100321.70;1800182;75;22781;-53
2021/01/05 05:08:38;;;;;;;44.65;22.25;;;;;;;-0.21;100.00;100318.17;1786434;79;20946;-52
2021/01/05 05:11:13;;;;;;;35.13;18.00;;;;;;;-0.20;100.00;100315.96;1788688;79;21363;-51
2021/01/05 05:13:55;;;;;;;41.50;21.42;;;;;;;-0.21;100.00;100320.83;1785002;78;21326;-52
2021/01/05 05:16:44;;;;;;;40.78;21.45;;;;;;;-0.21;100.00;100317.27;1785362;78;21027;-54
2021/01/05 05:19:46;;;;;;;36.88;20.05;;;;;;;-0.21;100.00;100324.80;1784778;79;20914;-52
2021/01/05 05:22:20;;;;;;;;;;;;;;;-0.17;100.00;100319.92;1789618;79;20961;-52
2021/01/05 05:24:56;;;;;;;34.92;17.48;;;;;;;-0.12;100.00;100316.84;1786388;78;21266;-52
2021/01/05 05:27:31;;;;;;;34.92;18.37;;;;;;;-0.12;100.00;100315.52;1786756;79;21048;-52
2021/01/05 05:30:03;;;;;;;34.70;20.15;;;;;;;-0.14;100.00;100315.97;1757081;79;20971;-52
2021/01/05 05:32:46;;;;;;;38.95;20.48;;;;;;;-0.12;100.00;100316.84;1824678;76;22814;-52
2021/01/05 05:35:41;;;;;;;37.75;18.80;;;;;;;-0.16;100.00;100312.45;1794645;77;21552;-53
2021/01/05 05:38:38;;;;;;;39.50;21.90;;;;;;;-0.16;100.00;100301.84;1780405;79;21396;-53
2021/01/05 05:42:06;;;;;;;37.58;21.55;;;;;;;-0.11;100.00;100296.08;1823437;76;22711;-52
2021/01/05 05:45:02;;;;;;;39.17;20.80;;;;;;;-0.16;100.00;100308.47;1821848;77;21552;-52
2021/01/05 05:47:36;;;;;;;46.30;26.05;;;;;;;-0.15;100.00;100303.61;1757879;79;21388;-51
2021/01/05 05:50:22;;;;;;;37.48;21.95;;;;;;;-0.14;100.00;100293.44;1819462;77;21155;-54
2021/01/05 05:53:10;;;;;;;37.80;21.95;;;;;;;-0.09;100.00;100299.63;1820477;77;21602;-53
2021/01/05 05:56:02;;;;;;;40.08;21.02;;;;;;;-0.06;100.00;100300.95;1821116;76;21171;-52
2021/01/05 05:58:38;;;;;;;40.73;21.23;;;;;;;-0.08;100.00;100312.00;1808660;77;21597;-52
2021/01/05 06:01:11;;;;;;;42.40;21.55;;;;;;;-0.09;100.00;100304.94;1822141;77;22211;-54
2021/01/05 06:03:39;;;;;;;34.98;19.20;;;;;;;-0.12;100.00;100302.27;1793749;77;21005;-51
2021/01/05 06:06:06;;;;;;;37.63;19.70;;;;;;;-0.16;100.00;100300.52;1818953;77;21002;-53
2021/01/05 06:08:35;;;;;;;37.60;20.80;;;;;;;-0.20;100.00;100301.38;1760712;79;21137;-53
2021/01/05 06:11:02;;;;;;;40.92;20.62;;;;;;;-0.23;100.00;100311.97;1826394;77;20974;-54
2021/01/05 06:13:30;;;;;;;39.80;19.73;;;;;;;-0.24;100.00;100306.23;1760298;79;22244;-54
2021/01/05 06:15:58;;;;;;;37.98;19.82;;;;;;;-0.21;100.00;100304.92;1820948;77;21024;-53
2021/01/05 06:18:26;;;;;;;39.90;20.08;;;;;;;-0.21;100.00;100296.97;1819608;77;21116;-53
2021/01/05 06:20:55;;;;;;;42.67;22.70;;;;;;;-0.23;100.00;100300.04;1818933;77;21212;-53
2021/01/05 06:23:23;;;;;;;38.23;20.17;;;;;;;-0.27;100.00;100292.95;1753439;79;21144;-54
2021/01/05 06:25:51;;;;;;;43.10;21.25;;;;;;;-0.28;100.00;100290.75;1820393;77;21337;-54
2021/01/05 06:28:19;;;;;;;37.42;20.45;;;;;;;-0.25;100.00;100284.59;1822765;77;21553;-52
2021/01/05 06:30:47;;;;;;;41.77;20.00;;;;;;;-0.23;100.00;100280.16;1753571;79;21061;-55
2021/01/05 06:33:15;;;;;;;34.78;17.70;;;;;;;-0.21;100.00;100273.12;1821704;77;21561;-53
2021/01/05 06:35:43;;;;;;;36.03;18.55;;;;;;;-0.23;100.00;100275.30;1821893;77;21005;-54
2021/01/05 06:38:11;;;;;;;44.80;21.50;;;;;;;-0.27;100.00;100273.08;1753191;79;21434;-53
2021/01/05 06:40:39;;;;;;;43.95;22.07;;;;;;;-0.25;100.00;100274.43;1819651;77;21850;-52
2021/01/05 06:43:07;;;;;;;41.35;20.68;;;;;;;-0.24;100.00;100273.09;1755174;79;21154;-52
2021/01/05 06:45:35;;;;;;;41.30;21.85;;;;;;;-0.23;100.00;100282.81;1821406;77;21687;-54
2021/01/05 06:48:04;;;;;;;43.00;21.35;;;;;;;-0.20;100.00;100288.58;1753238;79;20982;-54
2021/01/05 06:50:32;;;;;;;43.68;23.32;;;;;;;-0.17;100.00;100301.37;1820209;77;21376;-54
2021/01/05 06:53:00;;;;;;;44.00;21.20;;;;;;;-0.14;100.00;100296.09;1825269;77;21112;-53
2021/01/05 06:55:27;;;;;;;42.23;22.35;;;;;;;-0.14;100.00;100293.44;1757098;79;21715;-53
2021/01/05 06:57:55;;;;;;;44.48;21.80;;;;;;;-0.16;100.00;100300.52;1823778;76;21608;-53
2021/01/05 07:00:26;;;;;;;44.18;21.95;;;;;;;-0.15;100.00;100296.98;1821082;77;21573;-54
2021/01/05 07:02:54;;;;;;;52.03;27.20;;;;;;;-0.14;100.00;100298.73;1754825;79;21491;-53
2021/01/05 07:05:22;;;;;;;44.65;23.27;;;;;;;-0.14;100.00;100300.06;1823652;77;21128;-49
2021/01/05 07:07:50;;;;;;;42.60;21.02;;;;;;;-0.14;100.00;100293.44;1821273;76;20950;-49
2021/01/05 07:10:19;;;;;;;46.25;23.45;;;;;;;-0.13;100.00;100299.62;1815514;76;21060;-54
2021/01/05 07:12:47;;;;;;;46.33;21.42;;;;;;;-0.13;100.00;100297.85;1824866;76;20962;-54
2021/01/05 07:15:18;;;;;;;45.45;22.30;;;;;;;-0.10;100.00;100302.30;1822774;76;22050;-53
2021/01/05 07:17:46;;;;;;;37.90;19.48;;;;;;;-0.08;100.00;100301.84;1757581;79;21572;-50
2021/01/05 07:20:14;;;;;;;43.75;22.30;;;;;;;-0.06;100.00;100306.25;1825046;76;21370;-51
2021/01/05 07:22:42;;;;;;;47.13;25.62;;;;;;;-0.03;100.00;100304.94;1757950;79;21124;-55
2021/01/05 07:25:12;;;;;;;48.33;23.85;;;;;;;-0.01;100.00;100311.56;1821785;77;21140;-54
2021/01/05 07:27:40;;;;;;;45.73;23.75;;;;;;;-0.01;100.00;100295.66;1820216;76;21529;-55
2021/01/05 07:30:09;;;;;;;43.95;23.52;;;;;;;-0.02;100.00;100301.41;1753681;79;21037;-54
2021/01/05 07:32:37;;;;;;;48.63;24.20;;;;;;;0.01;100.00;100299.66;1823759;76;21116;-54
2021/01/05 07:35:06;;;;;;;47.30;25.82;;;;;;;0.02;100.00;100287.72;1757045;79;21156;-56
2021/01/05 07:37:36;;;;;;;48.33;25.57;;;;;;;0.04;100.00;100304.95;1820656;76;21025;-52
2021/01/05 07:40:06;;;;;;;47.15;26.75;;;;;;;0.05;100.00;100290.80;1820407;76;21671;-53
2021/01/05 07:42:34;;;;;;;50.10;26.77;;;;;;;0.05;100.00;100284.17;1820614;77;21138;-52
2021/01/05 07:45:09;;;;;;;57.25;28.30;;;;;;;0.05;100.00;100294.78;1820881;77;21529;-51
2021/01/05 07:47:38;;;;;;;49.67;26.12;;;;;;;0.07;100.00;100287.28;1821504;77;21002;-53
2021/01/05 07:50:12;;;;;;;53.95;28.75;;;;;;;0.07;100.00;100283.75;1820770;77;21084;-56
2021/01/05 07:52:49;;;;;;;53.52;27.13;;;;;;;0.14;100.00;100288.16;1814316;76;22440;-54
2021/01/05 07:55:20;;;;;;;50.75;27.62;;;;;;;0.11;100.00;100293.48;1773833;77;20925;-51
2021/01/05 07:57:49;;;;;;;46.92;26.45;;;;;;;0.14;100.00;100301.42;1761072;78;22114;-52
2021/01/05 08:00:20;;;;;;;46.02;25.10;;;;;;;0.15;100.00;100306.72;1729579;78;20969;-55
2021/01/05 08:02:48;;;;;;;51.35;23.87;;;;;;;0.15;100.00;100297.88;1759203;78;20996;-51
2021/01/05 08:05:20;;;;;;;50.45;25.20;;;;;;;0.15;100.00;100296.55;1763389;78;20993;-55
2021/01/05 08:07:48;;;;;;;51.40;26.02;;;;;;;0.16;100.00;100299.64;1765253;78;20997;-51
2021/01/05 08:10:29;;;;;;;50.35;26.65;;;;;;;0.19;100.00;100300.98;1766802;78;22997;-56
2021/01/05 08:12:56;;;;;;;53.33;27.32;;;;;;;0.18;100.00;100295.25;1762201;78;20997;-56
2021/01/05 08:15:26;;;;;;;53.75;27.30;;;;;;;0.18;100.00;100287.29;1763321;78;21406;-54
2021/01/05 08:17:54;;;;;;;43.90;23.18;;;;;;;0.20;100.00;100296.12;1760918;78;21157;-54
2021/01/05 08:20:24;;;;;;;45.73;25.43;;;;;;;0.19;100.00;100285.08;1765248;78;21020;-53
2021/01/05 08:22:52;;;;;;;53.25;27.10;;;;;;;0.17;100.00;100290.83;1761060;78;21378;-54
2021/01/05 08:25:21;;;;;;;49.03;25.72;;;;;;;0.14;100.00;100277.11;1764953;78;21124;-55
2021/01/05 08:27:49;;;;;;;48.55;26.62;;;;;;;0.12;100.00;100270.94;1763226;78;21013;-56
2021/01/05 08:30:23;;;;;;;51.15;25.62;;;;;;;0.13;100.00;100273.14;1766170;78;21012;-53
2021/01/05 08:33:04;;;;;;;45.48;24.10;;;;;;;0.20;100.00;100272.25;1814943;76;22796;-55
2021/01/05 08:35:32;;;;;;;45.63;24.47;;;;;;;0.17;100.00;100266.97;1764414;80;21426;-55
2021/01/05 08:37:59;;;;;;;49.48;27.82;;;;;;;0.17;100.00;100265.19;1770308;80;21234;-51
2021/01/05 08:40:32;;;;;;;50.20;27.70;;;;;;;0.18;100.00;100258.11;1769329;80;21443;-53
2021/01/05 08:43:03;;;;;;;46.85;25.30;;;;;;;0.19;100.00;100253.25;1768184;80;21505;-50
2021/01/05 08:45:31;;;;;;;45.33;25.90;;;;;;;0.22;100.00;100257.23;1748378;79;21003;-53
2021/01/05 08:48:00;;;;;;;46.10;26.33;;;;;;;0.22;100.00;100255.47;1765876;80;21437;-52
2021/01/05 08:50:29;;;;;;;48.28;27.20;;;;;;;0.21;100.00;100250.14;1748468;79;21404;-52
2021/01/05 08:53:07;;;;;;;47.88;26.15;;;;;;;0.21;100.00;100242.19;1765567;80;21320;-55
2021/01/05 08:55:37;;;;;;;50.67;26.85;;;;;;;0.23;100.00;100229.83;1748391;79;21156;-53
2021/01/05 08:58:05;;;;;;;53.00;28.57;;;;;;;0.26;100.00;100221.84;1765366;80;21018;-56
2021/01/05 09:00:33;;;;;;;53.52;30.43;;;;;;;0.26;100.00;100231.13;1750553;80;21620;-54
2021/01/05 09:03:02;;;;;;;45.17;25.45;;;;;;;0.29;100.00;100218.33;1765868;80;21403;-57
2021/01/05 09:05:32;;;;;;;48.35;26.68;;;;;;;0.31;100.00;100228.03;1759797;80;21153;-51
2021/01/05 09:08:00;;;;;;;46.63;25.50;;;;;;;0.32;100.00;100216.56;1745676;80;21065;-54
2021/01/05 09:10:28;;;;;;;44.03;25.70;;;;;;;0.33;100.00;100231.59;1766955;80;21026;-54
2021/01/05 09:12:55;;;;;;;44.60;25.23;;;;;;;0.34;100.00;100229.81;1747395;79;21172;-53
2021/01/05 09:15:23;;;;;;;51.85;26.75;;;;;;;0.34;100.00;100230.70;1768302;80;21379;-52
2021/01/05 09:17:52;;;;;;;47.20;26.48;;;;;;;0.34;100.00;100236.00;1748109;79;21164;-51
2021/01/05 09:20:22;;;;;;;45.63;23.98;;;;;;;0.36;100.00;100238.20;1765063;80;21542;-54
2021/01/05 09:22:51;;;;;;;40.10;24.25;;;;;;;0.39;100.00;100236.88;1750231;79;21153;-52
2021/01/05 09:25:18;;;;;;;45.28;25.85;;;;;;;0.40;100.00;100227.15;1742155;80;21117;-53
2021/01/05 09:27:46;;;;;;;47.88;26.55;;;;;;;0.41;100.00;100233.77;1746796;79;21379;-53
2021/01/05 09:30:16;;;;;;;42.03;23.92;;;;;;;0.41;100.00;100229.79;1764924;80;21172;-54
2021/01/05 09:32:45;;;;;;;47.98;28.60;;;;;;;0.44;100.00;100231.57;1762445;79;21115;-53
2021/01/05 09:35:13;;;;;;;42.25;24.45;;;;;;;0.44;100.00;100224.49;1753301;80;21560;-55
2021/01/05 09:37:44;;;;;;;41.37;24.18;;;;;;;0.47;100.00;100225.80;1722264;80;21736;-53
2021/01/05 09:40:13;;;;;;;41.50;23.70;;;;;;;0.47;100.00;100223.14;1754834;80;21845;-52
2021/01/05 09:42:42;;;;;;;43.15;23.75;;;;;;;0.45;100.00;100223.60;1755980;79;21172;-54
2021/01/05 09:45:11;;;;;;;47.48;25.60;;;;;;;0.42;100.00;100228.90;1742327;82;21156;-54
2021/01/05 09:47:39;;;;;;;49.20;25.32;;;;;;;0.44;100.00;100220.96;1772299;79;21020;-55
2021/01/05 09:50:08;;;;;;;38.60;23.25;;;;;;;0.43;100.00;100220.08;1787510;79;21029;-53
2021/01/05 09:52:36;;;;;;;46.48;24.92;;;;;;;0.41;100.00;100210.34;1788169;79;22016;-55
2021/01/05 09:55:06;;;;;;;43.45;23.92;;;;;;;0.40;100.00;100208.58;1789058;79;21135;-54
2021/01/05 09:57:34;;;;;;;39.20;22.93;;;;;;;0.40;100.00;100196.19;1773844;79;20993;-53
2021/01/05 10:00:04;;;;;;;43.80;24.52;;;;;;;0.43;100.00;100198.86;1787918;79;21269;-53
2021/01/05 10:02:32;;;;;;;39.40;22.10;;;;;;;0.45;100.00;100187.78;1787094;79;20993;-53
2021/01/05 10:05:00;;;;;;;42.30;22.10;;;;;;;0.48;100.00;100189.12;1789534;77;21571;-53
2021/01/05 10:07:28;;;;;;;49.95;21.57;;;;;;;0.50;100.00;100179.37;1772902;80;21120;-53
2021/01/05 10:09:56;;;;;;;49.90;25.92;;;;;;;0.52;100.00;100178.91;1786115;78;21605;-53
2021/01/05 10:12:24;;;;;;;55.60;27.65;;;;;;;0.56;100.00;100176.27;1786614;78;21596;-53
2021/01/05 10:14:52;;;;;;;54.15;28.05;;;;;;;0.56;100.00;100171.83;1773188;79;21368;-52
2021/01/05 10:17:20;;;;;;;61.75;31.60;;;;;;;0.56;100.00;100170.95;1787212;79;22266;-54
2021/01/05 10:19:48;;;;;;;53.95;28.52;;;;;;;0.57;100.00;100166.08;1788374;78;21167;-54
2021/01/05 10:22:16;;;;;;;49.93;25.68;;;;;;;0.60;100.00;100158.13;1774020;79;20994;-52
2021/01/05 10:24:44;;;;;;;53.30;26.12;;;;;;;0.60;100.00;100164.75;1788878;79;21565;-56
2021/01/05 10:27:11;;;;;;;43.83;22.95;;;;;;;0.61;100.00;100155.91;1771300;79;21029;-58
2021/01/05 10:29:39;;;;;;;44.95;23.15;;;;;;;0.61;100.00;100156.78;1787749;79;21191;-56
2021/01/05 10:32:07;;;;;;;46.20;23.12;;;;;;;0.62;100.00;100158.98;1803119;77;21511;-54
2021/01/05 10:34:35;;;;;;;39.23;22.45;;;;;;;0.63;100.00;100166.05;1764736;80;21073;-54
2021/01/05 10:37:05;;;;;;;41.00;22.35;;;;;;;0.65;100.00;100162.52;1759730;80;21963;-55
2021/01/05 10:39:33;;;;;;;45.55;25.02;;;;;;;0.67;100.00;100151.89;1745532;79;21120;-57
2021/01/05 10:42:02;;;;;;;46.40;25.20;;;;;;;0.66;100.00;100155.44;1765376;80;21382;-52
2021/01/05 10:44:30;;;;;;;45.85;23.47;;;;;;;0.65;100.00;100148.38;1766054;80;21010;-53
2021/01/05 10:47:01;;;;;;;48.58;25.65;;;;;;;0.66;100.00;100140.84;1767434;80;21151;-56
2021/01/05 10:49:36;;;;;;;50.65;27.30;;;;;;;0.71;100.00;100140.38;1810252;76;22827;-52
2021/01/05 10:52:05;;;;;;;56.37;29.00;;;;;;;0.63;100.00;100131.55;1763534;78;20966;-55
2021/01/05 10:54:34;;;;;;;47.08;25.65;;;;;;;0.64;100.00;100136.88;1771675;79;21350;-54
2021/01/05 10:57:03;;;;;;;46.42;25.82;;;;;;;0.66;100.00;100135.09;1771653;79;21002;-51
2021/01/05 10:59:32;;;;;;;48.70;26.33;;;;;;;0.65;100.00;100134.66;1772461;79;21025;-54
2021/01/05 11:02:02;;;;;;;44.70;23.98;;;;;;;0.66;100.00;100127.58;1773618;79;21029;-56
2021/01/05 11:04:30;;;;;;;55.10;29.40;;;;;;;0.69;100.00;100127.12;1766358;78;20974;-54
2021/01/05 11:07:01;;;;;;;48.85;26.50;;;;;;;0.72;100.00;100127.09;1766784;79;22223;-51
2021/01/05 11:09:29;;;;;;;51.53;28.30;;;;;;;0.77;100.00;100112.48;1766967;79;21040;-52
2021/01/05 11:12:05;;;;;;;56.28;30.80;;;;;;;0.75;100.00;100115.59;1764928;79;20997;-54
2021/01/05 11:14:33;;;;;;;57.75;30.25;;;;;;;0.77;100.00;100121.77;1763456;78;21131;-52
2021/01/05 11:17:01;;;;;;;61.13;32.90;;;;;;;0.78;100.00;100126.19;1767121;78;21172;-55
2021/01/05 11:19:29;;;;;;;58.50;32.53;;;;;;;0.76;100.00;100117.36;1765573;79;21361;-54
2021/01/05 11:22:02;;;;;;;56.98;30.68;;;;;;;0.75;100.00;100112.94;1767376;79;21013;-50
2021/01/05 11:24:30;;;;;;;69.00;34.67;;;;;;;0.74;100.00;100095.23;1769128;79;21153;-51
2021/01/05 11:26:58;;;;;;;66.25;33.78;;;;;;;0.72;100.00;100094.37;1764226;79;20971;-52
2021/01/05 11:29:26;;;;;;;67.82;37.13;;;;;;;0.73;100.00;100094.80;1763216;79;21191;-51
2021/01/05 11:32:00;;;;;;;66.57;34.83;;;;;;;0.73;100.00;100096.12;1765744;78;21365;-51
2021/01/05 11:34:29;;;;;;;64.85;34.78;;;;;;;0.75;100.00;100091.70;1762708;79;20997;-50
2021/01/05 11:37:04;;;;;;;65.12;33.67;;;;;;;0.77;100.00;100096.55;1764516;79;21558;-51
2021/01/05 11:39:46;;;;;;;73.35;37.45;;;;;;;0.82;100.00;100101.39;1829576;76;22735;-56
2021/01/05 11:42:16;;;;;;;68.37;34.85;;;;;;;0.76;100.00;100099.66;1763979;78;21013;-52